sensor_id;sensor_type;location;lat;lon;timestamp;P1;durP1;ratioP1;P2;durP2;ratioP2
75554;SDS011;66087;53.126;17.960;2023-04-19T00:02:06;6.40;;;2.80;;
75554;SDS011;66087;53.126;17.960;2023-04-19T00:04:33;5.90;;;2.50;;
75554;SDS011;66087;53.126;17.960;2023-04-19T00:06:59;7.20;;;3.10;;
75554;SDS011;66087;53.126;17.960;2023-04-19T00:09:28;7.10;;;3.10;;
75554;SDS011;66087;53.126;17.960;2023-04-19T00:11:54;9.20;;;2.50;;
75554;SDS011;66087;53.126;17.960;2023-04-19T00:14:20;8.20;;;2.70;;
75554;SDS011;66087;53.126;17.960;2023-04-19T00:17:06;7.80;;;3.00;;
75554;SDS011;66087;53.126;17.960;2023-04-19T00:19:33;7.40;;;3.00;;
75554;SDS011;66087;53.126;17.960;2023-04-19T00:21:59;7.90;;;3.10;;
75554;SDS011;66087;53.126;17.960;2023-04-19T00:24:26;9.90;;;3.80;;
75554;SDS011;66087;53.126;17.960;2023-04-19T00:26:53;7.40;;;3.00;;
75554;SDS011;66087;53.126;17.960;2023-04-19T00:29:19;11.00;;;4.00;;
75554;SDS011;66087;53.126;17.960;2023-04-19T00:31:46;9.30;;;3.60;;
75554;SDS011;66087;53.126;17.960;2023-04-19T00:34:12;8.50;;;3.60;;
75554;SDS011;66087;53.126;17.960;2023-04-19T00:36:38;8.10;;;3.40;;
75554;SDS011;66087;53.126;17.960;2023-04-19T00:39:05;7.00;;;3.30;;
75554;SDS011;66087;53.126;17.960;2023-04-19T00:41:31;9.60;;;3.60;;
75554;SDS011;66087;53.126;17.960;2023-04-19T00:43:58;7.80;;;3.30;;
75554;SDS011;66087;53.126;17.960;2023-04-19T00:46:25;7.90;;;2.80;;
75554;SDS011;66087;53.126;17.960;2023-04-19T00:48:54;8.50;;;3.40;;
75554;SDS011;66087;53.126;17.960;2023-04-19T00:51:20;8.60;;;3.40;;
75554;SDS011;66087;53.126;17.960;2023-04-19T00:53:47;9.70;;;3.00;;
75554;SDS011;66087;53.126;17.960;2023-04-19T00:56:14;8.00;;;3.20;;
75554;SDS011;66087;53.126;17.960;2023-04-19T00:58:44;6.30;;;3.20;;
75554;SDS011;66087;53.126;17.960;2023-04-19T01:01:10;7.00;;;2.80;;
75554;SDS011;66087;53.126;17.960;2023-04-19T01:03:37;7.50;;;3.30;;
75554;SDS011;66087;53.126;17.960;2023-04-19T01:06:03;7.20;;;2.60;;
75554;SDS011;66087;53.126;17.960;2023-04-19T01:08:30;8.40;;;3.10;;
75554;SDS011;66087;53.126;17.960;2023-04-19T01:10:56;8.70;;;3.30;;
75554;SDS011;66087;53.126;17.960;2023-04-19T01:13:22;8.00;;;3.20;;
75554;SDS011;66087;53.126;17.960;2023-04-19T01:15:49;6.90;;;3.00;;
75554;SDS011;66087;53.126;17.960;2023-04-19T01:18:16;7.30;;;2.70;;
75554;SDS011;66087;53.126;17.960;2023-04-19T01:20:43;7.80;;;2.70;;
75554;SDS011;66087;53.126;17.960;2023-04-19T01:23:09;7.30;;;2.60;;
75554;SDS011;66087;53.126;17.960;2023-04-19T01:25:37;10.30;;;3.40;;
75554;SDS011;66087;53.126;17.960;2023-04-19T01:28:03;7.70;;;3.10;;
75554;SDS011;66087;53.126;17.960;2023-04-19T01:30:30;8.10;;;3.20;;
75554;SDS011;66087;53.126;17.960;2023-04-19T01:32:57;8.40;;;3.30;;
75554;SDS011;66087;53.126;17.960;2023-04-19T01:35:23;7.40;;;2.80;;
75554;SDS011;66087;53.126;17.960;2023-04-19T01:37:52;8.40;;;3.00;;
75554;SDS011;66087;53.126;17.960;2023-04-19T01:40:22;10.40;;;3.10;;
75554;SDS011;66087;53.126;17.960;2023-04-19T01:42:51;7.10;;;3.00;;
75554;SDS011;66087;53.126;17.960;2023-04-19T01:45:17;8.40;;;3.50;;
75554;SDS011;66087;53.126;17.960;2023-04-19T01:47:45;7.60;;;2.80;;
75554;SDS011;66087;53.126;17.960;2023-04-19T01:50:11;8.30;;;3.40;;
75554;SDS011;66087;53.126;17.960;2023-04-19T01:52:37;7.00;;;2.80;;
75554;SDS011;66087;53.126;17.960;2023-04-19T01:55:04;6.20;;;2.30;;
75554;SDS011;66087;53.126;17.960;2023-04-19T01:57:30;7.90;;;3.00;;
75554;SDS011;66087;53.126;17.960;2023-04-19T01:59:56;7.80;;;2.80;;
75554;SDS011;66087;53.126;17.960;2023-04-19T02:02:22;6.90;;;2.60;;
75554;SDS011;66087;53.126;17.960;2023-04-19T02:04:48;7.00;;;2.70;;
75554;SDS011;66087;53.126;17.960;2023-04-19T02:07:34;6.80;;;2.40;;
75554;SDS011;66087;53.126;17.960;2023-04-19T02:10:05;6.90;;;2.60;;
75554;SDS011;66087;53.126;17.960;2023-04-19T02:12:35;7.60;;;2.30;;
75554;SDS011;66087;53.126;17.960;2023-04-19T02:15:02;8.80;;;3.20;;
75554;SDS011;66087;53.126;17.960;2023-04-19T02:17:29;9.70;;;2.50;;
75554;SDS011;66087;53.126;17.960;2023-04-19T02:19:57;6.00;;;2.30;;
75554;SDS011;66087;53.126;17.960;2023-04-19T02:22:23;6.30;;;2.70;;
75554;SDS011;66087;53.126;17.960;2023-04-19T02:24:49;8.50;;;2.90;;
75554;SDS011;66087;53.126;17.960;2023-04-19T02:27:17;8.00;;;2.90;;
75554;SDS011;66087;53.126;17.960;2023-04-19T02:29:43;6.90;;;2.80;;
75554;SDS011;66087;53.126;17.960;2023-04-19T02:32:11;7.80;;;2.50;;
75554;SDS011;66087;53.126;17.960;2023-04-19T02:34:37;8.20;;;3.20;;
75554;SDS011;66087;53.126;17.960;2023-04-19T02:37:03;5.60;;;2.20;;
75554;SDS011;66087;53.126;17.960;2023-04-19T02:39:30;5.60;;;2.40;;
75554;SDS011;66087;53.126;17.960;2023-04-19T02:41:56;10.60;;;2.70;;
75554;SDS011;66087;53.126;17.960;2023-04-19T02:44:22;6.60;;;2.50;;
75554;SDS011;66087;53.126;17.960;2023-04-19T02:46:49;6.50;;;2.30;;
75554;SDS011;66087;53.126;17.960;2023-04-19T02:49:17;7.00;;;2.80;;
75554;SDS011;66087;53.126;17.960;2023-04-19T02:51:44;6.80;;;3.00;;
75554;SDS011;66087;53.126;17.960;2023-04-19T02:54:12;9.00;;;2.50;;
75554;SDS011;66087;53.126;17.960;2023-04-19T02:56:39;8.80;;;3.00;;
75554;SDS011;66087;53.126;17.960;2023-04-19T02:59:06;7.20;;;2.30;;
75554;SDS011;66087;53.126;17.960;2023-04-19T03:01:33;8.40;;;2.50;;
75554;SDS011;66087;53.126;17.960;2023-04-19T03:04:01;6.70;;;2.80;;
75554;SDS011;66087;53.126;17.960;2023-04-19T03:06:27;7.00;;;2.50;;
75554;SDS011;66087;53.126;17.960;2023-04-19T03:08:53;7.30;;;2.80;;
75554;SDS011;66087;53.126;17.960;2023-04-19T03:11:19;8.10;;;2.90;;
75554;SDS011;66087;53.126;17.960;2023-04-19T03:13:46;7.40;;;3.20;;
75554;SDS011;66087;53.126;17.960;2023-04-19T03:16:14;8.50;;;3.40;;
75554;SDS011;66087;53.126;17.960;2023-04-19T03:18:41;9.40;;;2.70;;
75554;SDS011;66087;53.126;17.960;2023-04-19T03:21:08;6.70;;;2.50;;
75554;SDS011;66087;53.126;17.960;2023-04-19T03:23:44;7.50;;;2.60;;
75554;SDS011;66087;53.126;17.960;2023-04-19T03:26:11;7.60;;;2.80;;
75554;SDS011;66087;53.126;17.960;2023-04-19T03:28:41;6.80;;;2.90;;
75554;SDS011;66087;53.126;17.960;2023-04-19T03:31:17;5.90;;;2.70;;
75554;SDS011;66087;53.126;17.960;2023-04-19T03:33:43;9.60;;;2.70;;
75554;SDS011;66087;53.126;17.960;2023-04-19T03:36:10;6.80;;;2.80;;
75554;SDS011;66087;53.126;17.960;2023-04-19T03:38:36;9.80;;;2.80;;
75554;SDS011;66087;53.126;17.960;2023-04-19T03:41:04;6.80;;;3.00;;
75554;SDS011;66087;53.126;17.960;2023-04-19T03:43:33;8.40;;;3.30;;
75554;SDS011;66087;53.126;17.960;2023-04-19T03:46:02;8.80;;;3.10;;
75554;SDS011;66087;53.126;17.960;2023-04-19T03:48:28;7.30;;;2.70;;
75554;SDS011;66087;53.126;17.960;2023-04-19T03:50:55;7.90;;;3.10;;
75554;SDS011;66087;53.126;17.960;2023-04-19T03:53:21;7.30;;;3.30;;
75554;SDS011;66087;53.126;17.960;2023-04-19T03:55:47;6.40;;;2.70;;
75554;SDS011;66087;53.126;17.960;2023-04-19T03:58:13;7.30;;;3.60;;
75554;SDS011;66087;53.126;17.960;2023-04-19T04:00:47;8.50;;;3.70;;
75554;SDS011;66087;53.126;17.960;2023-04-19T04:03:14;12.00;;;8.90;;
75554;SDS011;66087;53.126;17.960;2023-04-19T04:05:40;15.80;;;8.90;;
75554;SDS011;66087;53.126;17.960;2023-04-19T04:08:27;9.70;;;5.00;;
75554;SDS011;66087;53.126;17.960;2023-04-19T04:10:53;8.40;;;4.60;;
75554;SDS011;66087;53.126;17.960;2023-04-19T04:13:19;8.90;;;4.60;;
75554;SDS011;66087;53.126;17.960;2023-04-19T04:15:49;8.40;;;4.20;;
75554;SDS011;66087;53.126;17.960;2023-04-19T04:18:16;6.40;;;2.60;;
75554;SDS011;66087;53.126;17.960;2023-04-19T04:20:42;8.40;;;4.80;;
75554;SDS011;66087;53.126;17.960;2023-04-19T04:23:09;9.80;;;3.90;;
75554;SDS011;66087;53.126;17.960;2023-04-19T04:25:36;9.90;;;4.30;;
75554;SDS011;66087;53.126;17.960;2023-04-19T04:28:06;8.40;;;2.80;;
75554;SDS011;66087;53.126;17.960;2023-04-19T04:30:32;9.70;;;3.40;;
75554;SDS011;66087;53.126;17.960;2023-04-19T04:32:59;10.30;;;4.80;;
75554;SDS011;66087;53.126;17.960;2023-04-19T04:35:45;10.20;;;4.00;;
75554;SDS011;66087;53.126;17.960;2023-04-19T04:38:16;8.70;;;4.00;;
75554;SDS011;66087;53.126;17.960;2023-04-19T04:40:48;12.70;;;5.10;;
75554;SDS011;66087;53.126;17.960;2023-04-19T04:43:17;12.60;;;3.60;;
75554;SDS011;66087;53.126;17.960;2023-04-19T04:45:46;10.00;;;3.80;;
75554;SDS011;66087;53.126;17.960;2023-04-19T04:48:32;7.70;;;3.80;;
75554;SDS011;66087;53.126;17.960;2023-04-19T04:50:59;8.70;;;3.50;;
75554;SDS011;66087;53.126;17.960;2023-04-19T04:53:26;11.50;;;3.90;;
75554;SDS011;66087;53.126;17.960;2023-04-19T04:55:53;8.10;;;3.30;;
75554;SDS011;66087;53.126;17.960;2023-04-19T04:58:39;9.60;;;3.60;;
75554;SDS011;66087;53.126;17.960;2023-04-19T05:01:11;10.80;;;4.10;;
75554;SDS011;66087;53.126;17.960;2023-04-19T05:03:39;8.70;;;3.60;;
75554;SDS011;66087;53.126;17.960;2023-04-19T05:06:25;9.00;;;3.50;;
75554;SDS011;66087;53.126;17.960;2023-04-19T05:08:52;8.50;;;3.30;;
75554;SDS011;66087;53.126;17.960;2023-04-19T05:11:27;7.90;;;3.60;;
75554;SDS011;66087;53.126;17.960;2023-04-19T05:13:53;8.00;;;3.00;;
75554;SDS011;66087;53.126;17.960;2023-04-19T05:16:20;10.80;;;4.10;;
75554;SDS011;66087;53.126;17.960;2023-04-19T05:19:06;12.70;;;3.90;;
75554;SDS011;66087;53.126;17.960;2023-04-19T05:21:38;12.60;;;5.00;;
75554;SDS011;66087;53.126;17.960;2023-04-19T05:24:04;14.40;;;6.00;;
75554;SDS011;66087;53.126;17.960;2023-04-19T05:26:33;10.80;;;4.30;;
75554;SDS011;66087;53.126;17.960;2023-04-19T05:29:01;11.80;;;4.20;;
75554;SDS011;66087;53.126;17.960;2023-04-19T05:31:36;13.20;;;4.70;;
75554;SDS011;66087;53.126;17.960;2023-04-19T05:34:11;11.30;;;3.80;;
75554;SDS011;66087;53.126;17.960;2023-04-19T05:36:39;10.90;;;3.60;;
75554;SDS011;66087;53.126;17.960;2023-04-19T05:39:05;15.00;;;5.80;;
75554;SDS011;66087;53.126;17.960;2023-04-19T05:41:31;11.20;;;4.90;;
75554;SDS011;66087;53.126;17.960;2023-04-19T05:43:57;11.90;;;4.60;;
75554;SDS011;66087;53.126;17.960;2023-04-19T05:46:23;11.20;;;4.20;;
75554;SDS011;66087;53.126;17.960;2023-04-19T05:48:49;11.60;;;4.10;;
75554;SDS011;66087;53.126;17.960;2023-04-19T05:51:25;11.40;;;4.20;;
75554;SDS011;66087;53.126;17.960;2023-04-19T05:54:07;10.50;;;3.90;;
75554;SDS011;66087;53.126;17.960;2023-04-19T05:56:38;8.80;;;3.30;;
75554;SDS011;66087;53.126;17.960;2023-04-19T05:59:05;11.30;;;3.90;;
75554;SDS011;66087;53.126;17.960;2023-04-19T06:01:51;8.90;;;3.20;;
75554;SDS011;66087;53.126;17.960;2023-04-19T06:04:23;9.40;;;3.50;;
75554;SDS011;66087;53.126;17.960;2023-04-19T06:06:49;7.80;;;3.50;;
75554;SDS011;66087;53.126;17.960;2023-04-19T06:09:16;7.10;;;2.80;;
75554;SDS011;66087;53.126;17.960;2023-04-19T06:11:44;9.20;;;3.10;;
75554;SDS011;66087;53.126;17.960;2023-04-19T06:14:10;8.70;;;3.60;;
75554;SDS011;66087;53.126;17.960;2023-04-19T06:16:39;6.80;;;2.60;;
75554;SDS011;66087;53.126;17.960;2023-04-19T06:19:06;10.50;;;3.60;;
75554;SDS011;66087;53.126;17.960;2023-04-19T06:21:53;9.00;;;2.90;;
75554;SDS011;66087;53.126;17.960;2023-04-19T06:24:20;10.00;;;3.80;;
75554;SDS011;66087;53.126;17.960;2023-04-19T06:26:46;6.80;;;3.20;;
75554;SDS011;66087;53.126;17.960;2023-04-19T06:29:14;10.30;;;4.10;;
75554;SDS011;66087;53.126;17.960;2023-04-19T06:31:40;12.80;;;4.60;;
75554;SDS011;66087;53.126;17.960;2023-04-19T06:34:07;13.00;;;4.30;;
75554;SDS011;66087;53.126;17.960;2023-04-19T06:36:33;8.80;;;3.30;;
75554;SDS011;66087;53.126;17.960;2023-04-19T06:38:59;9.00;;;4.00;;
75554;SDS011;66087;53.126;17.960;2023-04-19T06:41:26;11.90;;;4.60;;
75554;SDS011;66087;53.126;17.960;2023-04-19T06:43:52;11.90;;;4.70;;
75554;SDS011;66087;53.126;17.960;2023-04-19T06:46:18;7.10;;;2.90;;
75554;SDS011;66087;53.126;17.960;2023-04-19T06:48:45;15.10;;;5.50;;
75554;SDS011;66087;53.126;17.960;2023-04-19T06:51:11;18.80;;;8.20;;
75554;SDS011;66087;53.126;17.960;2023-04-19T06:53:37;21.50;;;8.40;;
75554;SDS011;66087;53.126;17.960;2023-04-19T06:56:04;20.50;;;8.70;;
75554;SDS011;66087;53.126;17.960;2023-04-19T06:58:31;11.00;;;4.10;;
75554;SDS011;66087;53.126;17.960;2023-04-19T07:00:58;16.70;;;6.50;;
75554;SDS011;66087;53.126;17.960;2023-04-19T07:03:25;12.50;;;4.60;;
75554;SDS011;66087;53.126;17.960;2023-04-19T07:05:52;8.90;;;4.10;;
75554;SDS011;66087;53.126;17.960;2023-04-19T07:08:22;12.20;;;4.60;;
75554;SDS011;66087;53.126;17.960;2023-04-19T07:10:50;7.20;;;3.20;;
75554;SDS011;66087;53.126;17.960;2023-04-19T07:13:17;9.60;;;3.60;;
75554;SDS011;66087;53.126;17.960;2023-04-19T07:15:43;17.40;;;5.10;;
75554;SDS011;66087;53.126;17.960;2023-04-19T07:18:10;10.40;;;4.10;;
75554;SDS011;66087;53.126;17.960;2023-04-19T07:20:36;10.10;;;4.00;;
75554;SDS011;66087;53.126;17.960;2023-04-19T07:23:22;10.00;;;3.50;;
75554;SDS011;66087;53.126;17.960;2023-04-19T07:25:50;10.80;;;4.60;;
75554;SDS011;66087;53.126;17.960;2023-04-19T07:28:16;11.60;;;4.50;;
75554;SDS011;66087;53.126;17.960;2023-04-19T07:30:43;13.00;;;5.30;;
75554;SDS011;66087;53.126;17.960;2023-04-19T07:33:10;10.50;;;5.10;;
75554;SDS011;66087;53.126;17.960;2023-04-19T07:35:37;12.90;;;5.40;;
75554;SDS011;66087;53.126;17.960;2023-04-19T07:38:04;8.80;;;3.90;;
75554;SDS011;66087;53.126;17.960;2023-04-19T07:40:30;11.00;;;5.10;;
75554;SDS011;66087;53.126;17.960;2023-04-19T07:42:57;15.90;;;7.40;;
75554;SDS011;66087;53.126;17.960;2023-04-19T07:45:23;12.40;;;5.30;;
75554;SDS011;66087;53.126;17.960;2023-04-19T07:47:51;11.00;;;4.80;;
75554;SDS011;66087;53.126;17.960;2023-04-19T07:50:16;12.00;;;5.20;;
75554;SDS011;66087;53.126;17.960;2023-04-19T07:52:43;15.70;;;6.90;;
75554;SDS011;66087;53.126;17.960;2023-04-19T07:55:09;15.50;;;7.10;;
75554;SDS011;66087;53.126;17.960;2023-04-19T07:57:37;12.50;;;6.30;;
75554;SDS011;66087;53.126;17.960;2023-04-19T08:00:03;18.30;;;9.10;;
75554;SDS011;66087;53.126;17.960;2023-04-19T08:02:42;12.50;;;5.50;;
75554;SDS011;66087;53.126;17.960;2023-04-19T08:05:09;12.30;;;6.10;;
75554;SDS011;66087;53.126;17.960;2023-04-19T08:07:36;16.70;;;7.40;;
75554;SDS011;66087;53.126;17.960;2023-04-19T08:10:02;16.50;;;7.80;;
75554;SDS011;66087;53.126;17.960;2023-04-19T08:12:29;13.20;;;5.80;;
75554;SDS011;66087;53.126;17.960;2023-04-19T08:14:55;13.20;;;6.70;;
75554;SDS011;66087;53.126;17.960;2023-04-19T08:17:21;12.20;;;5.30;;
75554;SDS011;66087;53.126;17.960;2023-04-19T08:19:50;12.10;;;5.60;;
75554;SDS011;66087;53.126;17.960;2023-04-19T08:22:16;13.40;;;5.10;;
75554;SDS011;66087;53.126;17.960;2023-04-19T08:24:43;7.60;;;3.80;;
75554;SDS011;66087;53.126;17.960;2023-04-19T08:27:10;16.40;;;6.20;;
75554;SDS011;66087;53.126;17.960;2023-04-19T08:29:38;20.60;;;6.70;;
75554;SDS011;66087;53.126;17.960;2023-04-19T08:32:14;20.10;;;8.50;;
75554;SDS011;66087;53.126;17.960;2023-04-19T08:34:40;17.30;;;7.50;;
75554;SDS011;66087;53.126;17.960;2023-04-19T08:37:06;18.60;;;7.60;;
75554;SDS011;66087;53.126;17.960;2023-04-19T08:39:33;15.10;;;6.30;;
75554;SDS011;66087;53.126;17.960;2023-04-19T08:42:04;17.10;;;7.20;;
75554;SDS011;66087;53.126;17.960;2023-04-19T08:44:37;24.80;;;9.90;;
75554;SDS011;66087;53.126;17.960;2023-04-19T08:47:04;18.40;;;8.00;;
75554;SDS011;66087;53.126;17.960;2023-04-19T08:49:35;20.80;;;9.10;;
75554;SDS011;66087;53.126;17.960;2023-04-19T08:52:03;17.60;;;7.20;;
75554;SDS011;66087;53.126;17.960;2023-04-19T08:54:31;14.30;;;6.90;;
75554;SDS011;66087;53.126;17.960;2023-04-19T08:56:57;14.10;;;5.40;;
75554;SDS011;66087;53.126;17.960;2023-04-19T08:59:27;11.90;;;5.50;;
75554;SDS011;66087;53.126;17.960;2023-04-19T09:01:55;11.50;;;5.20;;
75554;SDS011;66087;53.126;17.960;2023-04-19T09:04:27;12.70;;;5.30;;
75554;SDS011;66087;53.126;17.960;2023-04-19T09:06:56;14.80;;;6.40;;
75554;SDS011;66087;53.126;17.960;2023-04-19T09:09:24;18.80;;;6.50;;
75554;SDS011;66087;53.126;17.960;2023-04-19T09:11:52;10.20;;;5.50;;
75554;SDS011;66087;53.126;17.960;2023-04-19T09:14:21;10.70;;;5.60;;
75554;SDS011;66087;53.126;17.960;2023-04-19T09:16:47;11.90;;;4.70;;
75554;SDS011;66087;53.126;17.960;2023-04-19T09:19:16;12.20;;;5.40;;
75554;SDS011;66087;53.126;17.960;2023-04-19T09:21:44;12.70;;;6.30;;
75554;SDS011;66087;53.126;17.960;2023-04-19T09:24:11;12.20;;;5.30;;
75554;SDS011;66087;53.126;17.960;2023-04-19T09:26:37;15.80;;;5.90;;
75554;SDS011;66087;53.126;17.960;2023-04-19T09:29:20;13.80;;;6.00;;
75554;SDS011;66087;53.126;17.960;2023-04-19T09:31:55;14.50;;;7.50;;
75554;SDS011;66087;53.126;17.960;2023-04-19T09:34:23;17.50;;;8.10;;
75554;SDS011;66087;53.126;17.960;2023-04-19T09:36:49;14.60;;;7.30;;
75554;SDS011;66087;53.126;17.960;2023-04-19T09:39:27;13.80;;;7.00;;
75554;SDS011;66087;53.126;17.960;2023-04-19T09:41:54;16.90;;;7.70;;
75554;SDS011;66087;53.126;17.960;2023-04-19T09:44:23;16.00;;;7.60;;
75554;SDS011;66087;53.126;17.960;2023-04-19T09:46:56;20.50;;;8.50;;
75554;SDS011;66087;53.126;17.960;2023-04-19T09:49:23;17.10;;;7.50;;
75554;SDS011;66087;53.126;17.960;2023-04-19T09:51:51;17.10;;;7.30;;
75554;SDS011;66087;53.126;17.960;2023-04-19T09:54:21;15.90;;;6.80;;
75554;SDS011;66087;53.126;17.960;2023-04-19T09:56:49;17.20;;;8.20;;
75554;SDS011;66087;53.126;17.960;2023-04-19T09:59:17;17.80;;;8.30;;
75554;SDS011;66087;53.126;17.960;2023-04-19T10:01:45;18.60;;;9.80;;
75554;SDS011;66087;53.126;17.960;2023-04-19T10:04:14;13.30;;;7.20;;
75554;SDS011;66087;53.126;17.960;2023-04-19T10:06:48;12.10;;;5.90;;
75554;SDS011;66087;53.126;17.960;2023-04-19T10:09:17;10.90;;;5.30;;
75554;SDS011;66087;53.126;17.960;2023-04-19T10:11:46;7.80;;;3.60;;
75554;SDS011;66087;53.126;17.960;2023-04-19T10:14:16;11.00;;;5.50;;
75554;SDS011;66087;53.126;17.960;2023-04-19T10:16:46;13.60;;;5.60;;
75554;SDS011;66087;53.126;17.960;2023-04-19T10:19:14;11.80;;;4.80;;
75554;SDS011;66087;53.126;17.960;2023-04-19T10:21:42;11.50;;;5.80;;
75554;SDS011;66087;53.126;17.960;2023-04-19T10:24:12;11.10;;;5.40;;
75554;SDS011;66087;53.126;17.960;2023-04-19T10:32:14;9.70;;;4.30;;
75554;SDS011;66087;53.126;17.960;2023-04-19T10:34:40;12.00;;;4.70;;
75554;SDS011;66087;53.126;17.960;2023-04-19T10:37:09;8.00;;;4.10;;
75554;SDS011;66087;53.126;17.960;2023-04-19T10:39:39;8.80;;;3.60;;
75554;SDS011;66087;53.126;17.960;2023-04-19T10:42:08;7.80;;;3.30;;
75554;SDS011;66087;53.126;17.960;2023-04-19T10:44:35;9.00;;;3.90;;
75554;SDS011;66087;53.126;17.960;2023-04-19T10:47:01;9.00;;;4.50;;
75554;SDS011;66087;53.126;17.960;2023-04-19T10:49:30;10.10;;;4.50;;
75554;SDS011;66087;53.126;17.960;2023-04-19T10:51:56;10.10;;;5.40;;
75554;SDS011;66087;53.126;17.960;2023-04-19T10:54:27;10.60;;;5.20;;
75554;SDS011;66087;53.126;17.960;2023-04-19T10:56:57;10.90;;;5.40;;
75554;SDS011;66087;53.126;17.960;2023-04-19T10:59:31;9.70;;;3.70;;
75554;SDS011;66087;53.126;17.960;2023-04-19T11:02:02;9.00;;;4.00;;
75554;SDS011;66087;53.126;17.960;2023-04-19T11:05:00;8.70;;;4.60;;
75554;SDS011;66087;53.126;17.960;2023-04-19T11:07:35;8.80;;;4.80;;
75554;SDS011;66087;53.126;17.960;2023-04-19T11:10:02;7.20;;;3.80;;
75554;SDS011;66087;53.126;17.960;2023-04-19T11:12:32;7.00;;;3.60;;
75554;SDS011;66087;53.126;17.960;2023-04-19T11:14:58;8.10;;;4.50;;
75554;SDS011;66087;53.126;17.960;2023-04-19T11:17:27;8.30;;;4.00;;
75554;SDS011;66087;53.126;17.960;2023-04-19T11:19:57;8.50;;;4.10;;
75554;SDS011;66087;53.126;17.960;2023-04-19T11:22:30;9.20;;;4.30;;
75554;SDS011;66087;53.126;17.960;2023-04-19T11:25:07;9.50;;;5.10;;
75554;SDS011;66087;53.126;17.960;2023-04-19T11:27:44;7.60;;;3.90;;
75554;SDS011;66087;53.126;17.960;2023-04-19T11:30:13;9.30;;;4.50;;
75554;SDS011;66087;53.126;17.960;2023-04-19T11:33:02;10.40;;;4.80;;
75554;SDS011;66087;53.126;17.960;2023-04-19T11:35:28;9.90;;;5.20;;
75554;SDS011;66087;53.126;17.960;2023-04-19T11:37:57;7.00;;;3.60;;
75554;SDS011;66087;53.126;17.960;2023-04-19T11:40:27;9.80;;;4.70;;
75554;SDS011;66087;53.126;17.960;2023-04-19T11:42:55;9.50;;;4.10;;
75554;SDS011;66087;53.126;17.960;2023-04-19T11:45:26;7.00;;;3.30;;
75554;SDS011;66087;53.126;17.960;2023-04-19T11:47:54;8.10;;;4.10;;
75554;SDS011;66087;53.126;17.960;2023-04-19T11:50:29;8.30;;;4.40;;
75554;SDS011;66087;53.126;17.960;2023-04-19T11:52:58;10.30;;;5.10;;
75554;SDS011;66087;53.126;17.960;2023-04-19T11:55:45;9.40;;;4.80;;
75554;SDS011;66087;53.126;17.960;2023-04-19T12:00:54;5.90;;;3.20;;
75554;SDS011;66087;53.126;17.960;2023-04-19T12:03:23;9.30;;;3.70;;
75554;SDS011;66087;53.126;17.960;2023-04-19T12:05:52;7.30;;;2.50;;
75554;SDS011;66087;53.126;17.960;2023-04-19T12:08:28;8.50;;;4.20;;
75554;SDS011;66087;53.126;17.960;2023-04-19T12:11:18;6.80;;;3.00;;
75554;SDS011;66087;53.126;17.960;2023-04-19T12:16:34;6.10;;;2.70;;
75554;SDS011;66087;53.126;17.960;2023-04-19T12:19:09;7.40;;;4.00;;
75554;SDS011;66087;53.126;17.960;2023-04-19T12:21:40;8.10;;;4.20;;
75554;SDS011;66087;53.126;17.960;2023-04-19T12:24:06;7.20;;;3.60;;
75554;SDS011;66087;53.126;17.960;2023-04-19T12:26:32;7.10;;;3.30;;
75554;SDS011;66087;53.126;17.960;2023-04-19T12:29:01;6.00;;;2.50;;
75554;SDS011;66087;53.126;17.960;2023-04-19T12:31:29;8.10;;;4.30;;
75554;SDS011;66087;53.126;17.960;2023-04-19T12:33:58;6.10;;;2.70;;
75554;SDS011;66087;53.126;17.960;2023-04-19T12:36:24;7.70;;;4.60;;
75554;SDS011;66087;53.126;17.960;2023-04-19T12:38:51;6.80;;;2.90;;
75554;SDS011;66087;53.126;17.960;2023-04-19T12:41:16;6.20;;;3.40;;
75554;SDS011;66087;53.126;17.960;2023-04-19T12:43:44;8.50;;;2.90;;
75554;SDS011;66087;53.126;17.960;2023-04-19T12:46:10;7.90;;;4.20;;
75554;SDS011;66087;53.126;17.960;2023-04-19T12:48:36;5.70;;;2.80;;
75554;SDS011;66087;53.126;17.960;2023-04-19T12:51:04;8.20;;;4.30;;
75554;SDS011;66087;53.126;17.960;2023-04-19T12:53:30;7.10;;;3.80;;
75554;SDS011;66087;53.126;17.960;2023-04-19T12:55:56;6.90;;;3.80;;
75554;SDS011;66087;53.126;17.960;2023-04-19T12:58:23;7.20;;;3.00;;
75554;SDS011;66087;53.126;17.960;2023-04-19T13:00:49;8.80;;;4.90;;
75554;SDS011;66087;53.126;17.960;2023-04-19T13:03:16;6.50;;;2.70;;
75554;SDS011;66087;53.126;17.960;2023-04-19T13:05:43;6.50;;;2.70;;
75554;SDS011;66087;53.126;17.960;2023-04-19T13:08:09;6.90;;;3.50;;
75554;SDS011;66087;53.126;17.960;2023-04-19T13:10:35;8.00;;;4.20;;
75554;SDS011;66087;53.126;17.960;2023-04-19T13:13:03;8.40;;;4.60;;
75554;SDS011;66087;53.126;17.960;2023-04-19T13:15:49;9.10;;;5.50;;
75554;SDS011;66087;53.126;17.960;2023-04-19T13:18:15;9.10;;;4.80;;
75554;SDS011;66087;53.126;17.960;2023-04-19T13:21:01;11.10;;;5.80;;
75554;SDS011;66087;53.126;17.960;2023-04-19T13:23:29;10.10;;;4.70;;
75554;SDS011;66087;53.126;17.960;2023-04-19T13:25:55;8.70;;;3.90;;
75554;SDS011;66087;53.126;17.960;2023-04-19T13:28:42;9.10;;;4.40;;
75554;SDS011;66087;53.126;17.960;2023-04-19T13:31:08;8.10;;;4.00;;
75554;SDS011;66087;53.126;17.960;2023-04-19T13:33:35;7.70;;;4.20;;
75554;SDS011;66087;53.126;17.960;2023-04-19T13:36:21;7.20;;;3.20;;
75554;SDS011;66087;53.126;17.960;2023-04-19T13:38:47;8.10;;;4.40;;
75554;SDS011;66087;53.126;17.960;2023-04-19T13:41:13;9.40;;;5.20;;
75554;SDS011;66087;53.126;17.960;2023-04-19T13:43:39;12.50;;;6.10;;
75554;SDS011;66087;53.126;17.960;2023-04-19T13:46:06;7.30;;;3.80;;
75554;SDS011;66087;53.126;17.960;2023-04-19T13:48:32;8.20;;;4.80;;
75554;SDS011;66087;53.126;17.960;2023-04-19T13:50:59;9.40;;;4.60;;
75554;SDS011;66087;53.126;17.960;2023-04-19T13:53:45;11.90;;;7.20;;
75554;SDS011;66087;53.126;17.960;2023-04-19T13:56:11;10.40;;;5.60;;
75554;SDS011;66087;53.126;17.960;2023-04-19T13:58:37;11.40;;;6.50;;
75554;SDS011;66087;53.126;17.960;2023-04-19T14:01:03;10.60;;;6.00;;
75554;SDS011;66087;53.126;17.960;2023-04-19T14:03:29;9.50;;;5.10;;
75554;SDS011;66087;53.126;17.960;2023-04-19T14:05:56;11.20;;;5.90;;
75554;SDS011;66087;53.126;17.960;2023-04-19T14:08:23;10.00;;;5.70;;
75554;SDS011;66087;53.126;17.960;2023-04-19T14:10:49;13.10;;;7.30;;
75554;SDS011;66087;53.126;17.960;2023-04-19T14:13:16;12.20;;;6.90;;
75554;SDS011;66087;53.126;17.960;2023-04-19T14:15:43;13.10;;;7.30;;
75554;SDS011;66087;53.126;17.960;2023-04-19T14:18:08;12.50;;;6.80;;
75554;SDS011;66087;53.126;17.960;2023-04-19T14:20:34;11.40;;;6.60;;
75554;SDS011;66087;53.126;17.960;2023-04-19T14:23:01;12.20;;;7.10;;
75554;SDS011;66087;53.126;17.960;2023-04-19T14:25:27;12.70;;;7.60;;
75554;SDS011;66087;53.126;17.960;2023-04-19T14:27:53;13.80;;;8.30;;
75554;SDS011;66087;53.126;17.960;2023-04-19T14:30:19;15.20;;;8.90;;
75554;SDS011;66087;53.126;17.960;2023-04-19T14:32:47;10.20;;;6.60;;
75554;SDS011;66087;53.126;17.960;2023-04-19T14:35:13;10.60;;;6.60;;
75554;SDS011;66087;53.126;17.960;2023-04-19T14:37:40;11.90;;;7.20;;
75554;SDS011;66087;53.126;17.960;2023-04-19T14:40:08;9.90;;;5.30;;
75554;SDS011;66087;53.126;17.960;2023-04-19T14:42:35;8.30;;;4.50;;
75554;SDS011;66087;53.126;17.960;2023-04-19T14:45:01;8.30;;;4.50;;
75554;SDS011;66087;53.126;17.960;2023-04-19T14:47:29;11.30;;;6.70;;
75554;SDS011;66087;53.126;17.960;2023-04-19T14:49:57;9.00;;;5.10;;